Big Bear Station Historical Data
Daily Summary for August 15, 2017 Units:  English    Metric   Both
« Previous Day
Next Day »
Daily Weekly Monthly Yearly Custom
  High: Low: Average:
Temperature: 73.2 °F 49.3 °F 59.4 °F
Dew Point: 45.5 °F 9.7 °F 34.6 °F
Humidity: 73 % 19 % 42 %
Wind Speed: 7.3 mph 0.0 mph 2.7 mph
Wind Gust: -999.0 mph - -
Wind:- - West
Pressure: 30.15 in 30.09 in -
Precipitation: 0.00 in    
Historical Graphs
 
 
Tabular Data for August 15, 2017
Time Temperature Dew Point Pressure Wind Wind Speed Wind Gust Humidity Rainfall Rate (Hourly)
00:01 54.9 °F 28.4 °F 30.12 in WNW 3.2 mph -999.0 mph 36 % 0 in
00:16 54.5 °F 25.2 °F 30.12 in South 3.7 mph -999.0 mph 32 % 0 in
00:31 54.1 °F 26.3 °F 30.12 in NNW 4.2 mph -999.0 mph 34 % 0 in
00:47 54.0 °F 27.6 °F 30.12 in Calm   -999.0 mph 36 % 0 in
01:02 53.8 °F 26.8 °F 30.12 in North 2.7 mph -999.0 mph 35 % 0 in
01:17 53.6 °F 27.9 °F 30.12 in Calm   -999.0 mph 37 % 0 in
01:32 53.4 °F 28.4 °F 30.11 in WNW 1.7 mph -999.0 mph 38 % 0 in
01:48 53.4 °F 32.0 °F 30.11 in NNE 2.2 mph -999.0 mph 44 % 0 in
02:03 53.2 °F 31.8 °F 30.11 in Calm   -999.0 mph 44 % 0 in
02:18 52.5 °F 31.2 °F 30.11 in Calm   -999.0 mph 44 % 0 in
02:33 52.2 °F 32.0 °F 30.12 in Calm   -999.0 mph 46 % 0 in
02:48 52.0 °F 33.9 °F 30.11 in Calm   -999.0 mph 50 % 0 in
03:04 52.5 °F 34.9 °F 30.11 in Calm   -999.0 mph 51 % 0 in
03:19 52.2 °F 34.6 °F 30.10 in SE 1.1 mph -999.0 mph 51 % 0 in
03:34 52.2 °F 35.6 °F 30.10 in Calm   -999.0 mph 53 % 0 in
03:49 52.3 °F 35.2 °F 30.10 in West 3.7 mph -999.0 mph 52 % 0 in
04:05 52.5 °F 35.4 °F 30.10 in Calm   -999.0 mph 52 % 0 in
04:20 52.7 °F 35.6 °F 30.10 in SW 1.7 mph -999.0 mph 52 % 0 in
04:35 52.3 °F 35.7 °F 30.10 in SSW 1.7 mph -999.0 mph 53 % 0 in
04:50 52.3 °F 36.1 °F 30.09 in NW 2.2 mph -999.0 mph 54 % 0 in
05:05 52.3 °F 38.4 °F 30.09 in Calm   -999.0 mph 59 % 0 in
05:21 52.2 °F 38.7 °F 30.10 in SSE 1.1 mph -999.0 mph 60 % 0 in
05:36 51.8 °F 39.2 °F 30.10 in Calm   -999.0 mph 62 % 0 in
05:51 51.8 °F 39.2 °F 30.10 in West 2.7 mph -999.0 mph 62 % 0 in
06:06 51.8 °F 39.6 °F 30.10 in Calm   -999.0 mph 63 % 0 in
06:21 51.6 °F 40.2 °F 30.10 in Calm   -999.0 mph 65 % 0 in
06:37 51.4 °F 41.9 °F 30.10 in NNW 5.8 mph -999.0 mph 70 % 0 in
06:52 51.8 °F 42.7 °F 30.10 in NNE 1.7 mph -999.0 mph 71 % 0 in
07:07 52.3 °F 43.9 °F 30.10 in WNW 3.7 mph -999.0 mph 73 % 0 in
07:22 53.1 °F 43.6 °F 30.11 in West 7.3 mph -999.0 mph 70 % 0 in
07:37 53.2 °F 44.0 °F 30.11 in SSE 2.7 mph -999.0 mph 71 % 0 in
07:53 54.1 °F 44.2 °F 30.11 in South 3.2 mph -999.0 mph 69 % 0 in
08:08 54.7 °F 44.3 °F 30.12 in WNW 2.2 mph -999.0 mph 68 % 0 in
08:23 55.4 °F 43.8 °F 30.12 in NW 3.2 mph -999.0 mph 65 % 0 in
08:38 56.3 °F 43.9 °F 30.12 in NNW 4.7 mph -999.0 mph 63 % 0 in
08:53 57.6 °F 41.5 °F 30.12 in NNW 1.7 mph -999.0 mph 55 % 0 in
09:09 59.2 °F 38.4 °F 30.12 in WNW 1.7 mph -999.0 mph 46 % 0 in
09:24 60.6 °F 38.6 °F 30.12 in SSW 2.2 mph -999.0 mph 44 % 0 in
09:39 61.3 °F 38.0 °F 30.12 in NW 2.2 mph -999.0 mph 42 % 0 in
09:54 61.3 °F 40.3 °F 30.12 in NE 4.2 mph -999.0 mph 46 % 0 in
10:10 61.7 °F 33.8 °F 30.13 in NW 6.3 mph -999.0 mph 35 % 0 in
10:25 63.1 °F 35.0 °F 30.14 in NNW 5.8 mph -999.0 mph 35 % 0 in
10:40 64.9 °F 30.1 °F 30.13 in North 4.7 mph -999.0 mph 27 % 0 in
10:55 66.7 °F 32.6 °F 30.13 in North 4.2 mph -999.0 mph 28 % 0 in
11:11 68.9 °F 34.4 °F 30.13 in WNW 4.7 mph -999.0 mph 28 % 0 in
11:26 68.5 °F 39.0 °F 30.13 in NNE 4.2 mph -999.0 mph 34 % 0 in
11:41 69.8 °F 31.4 °F 30.13 in North 3.2 mph -999.0 mph 24 % 0 in
11:56 71.1 °F 31.4 °F 30.14 in WNW 5.8 mph -999.0 mph 23 % 0 in
12:12 70.9 °F 37.1 °F 30.14 in NW 4.7 mph -999.0 mph 29 % 0 in
12:27 70.7 °F 36.0 °F 30.13 in NW 5.8 mph -999.0 mph 28 % 0 in
12:42 71.6 °F 37.7 °F 30.13 in WNW 2.7 mph -999.0 mph 29 % 0 in
12:57 72.7 °F 36.8 °F 30.13 in NW 4.7 mph -999.0 mph 27 % 0 in
13:13 72.0 °F 36.2 °F 30.13 in WNW 4.7 mph -999.0 mph 27 % 0 in
13:28 71.2 °F 35.5 °F 30.13 in ESE 6.3 mph -999.0 mph 27 % 0 in
13:43 73.2 °F 41.6 °F 30.13 in NNW 4.7 mph -999.0 mph 32 % 0 in
13:59 71.6 °F 36.8 °F 30.13 in NNW 3.7 mph -999.0 mph 28 % 0 in
14:14 72.5 °F 37.5 °F 30.13 in NNW 5.8 mph -999.0 mph 28 % 0 in
14:29 71.2 °F 36.4 °F 30.13 in NW 5.3 mph -999.0 mph 28 % 0 in
14:45 72.1 °F 38.1 °F 30.13 in North 6.8 mph -999.0 mph 29 % 0 in
15:00 71.4 °F 37.5 °F 30.13 in North 5.3 mph -999.0 mph 29 % 0 in
15:15 71.1 °F 42.8 °F 30.13 in NNW 5.8 mph -999.0 mph 36 % 0 in
15:30 70.7 °F 43.9 °F 30.13 in NW 4.2 mph -999.0 mph 38 % 0 in
15:46 69.6 °F 42.2 °F 30.13 in WNW 5.8 mph -999.0 mph 37 % 0 in
16:02 69.4 °F 43.4 °F 30.13 in NW 3.7 mph -999.0 mph 39 % 0 in
16:17 69.3 °F 43.3 °F 30.13 in WNW 6.3 mph -999.0 mph 39 % 0 in
16:32 69.4 °F 42.0 °F 30.13 in NW 4.7 mph -999.0 mph 37 % 0 in
16:47 69.4 °F 42.0 °F 30.13 in NNW 3.7 mph -999.0 mph 37 % 0 in
17:02 72.1 °F 43.7 °F 30.13 in West 4.7 mph -999.0 mph 36 % 0 in
17:18 71.4 °F 44.5 °F 30.13 in NW 6.3 mph -999.0 mph 38 % 0 in
17:33 71.1 °F 44.2 °F 30.13 in WNW 3.7 mph -999.0 mph 38 % 0 in
17:48 69.6 °F 45.5 °F 30.13 in NW 4.2 mph -999.0 mph 42 % 0 in
18:03 68.9 °F 44.2 °F 30.13 in WNW 4.7 mph -999.0 mph 41 % 0 in
18:18 68.9 °F 45.5 °F 30.12 in North 3.7 mph -999.0 mph 43 % 0 in
18:49 62.4 °F 44.0 °F 30.11 in West 1.1 mph -999.0 mph 51 % 0 in
19:04 60.4 °F 42.2 °F 30.11 in Calm   -999.0 mph 51 % 0 in
19:19 58.8 °F 41.2 °F 30.12 in Calm   -999.0 mph 52 % 0 in
19:34 57.6 °F 38.0 °F 30.12 in SW 1.1 mph -999.0 mph 48 % 0 in
19:50 57.0 °F 34.7 °F 30.12 in Calm   -999.0 mph 43 % 0 in
20:05 55.9 °F 33.1 °F 30.12 in Calm   -999.0 mph 42 % 0 in
20:20 54.5 °F 34.7 °F 30.13 in Calm   -999.0 mph 47 % 0 in
20:35 53.4 °F 31.5 °F 30.13 in Calm   -999.0 mph 43 % 0 in
20:50 52.9 °F 25.3 °F 30.13 in Calm   -999.0 mph 34 % 0 in
21:06 52.2 °F 17.4 °F 30.14 in Calm   -999.0 mph 25 % 0 in
21:21 51.8 °F 15.1 °F 30.14 in Calm   -999.0 mph 23 % 0 in
21:36 51.3 °F 13.7 °F 30.15 in Calm   -999.0 mph 22 % 0 in
21:51 50.9 °F 16.3 °F 30.15 in Calm   -999.0 mph 25 % 0 in
22:07 50.5 °F 9.7 °F 30.14 in Calm   -999.0 mph 19 % 0 in
22:22 50.5 °F 12.0 °F 30.15 in Calm   -999.0 mph 21 % 0 in
22:37 50.2 °F 14.8 °F 30.15 in Calm   -999.0 mph 24 % 0 in
22:52 50.0 °F 22.0 °F 30.15 in South 1.7 mph -999.0 mph 33 % 0 in
23:07 50.2 °F 13.8 °F 30.15 in SSE 1.7 mph -999.0 mph 23 % 0 in
23:23 49.6 °F 17.8 °F 30.14 in South 1.7 mph -999.0 mph 28 % 0 in
23:38 49.8 °F 14.4 °F 30.15 in South 2.7 mph -999.0 mph 24 % 0 in
23:53 49.3 °F 14.9 °F 30.15 in SSE 1.1 mph -999.0 mph 25 % 0 in
Big Bear CA Weather
Compliments of Weather Underground - 1.5 mb